Time;durP1;ratioP1;P1;durP2;ratioP2;P2;SDS_P1;SDS_P2;PMS_P1;PMS_P2;Temp;Humidity;BMP_temperature;BMP_pressure;BME280_temperature;BME280_humidity;BME280_pressure;Samples;Min_cycle;Max_cycle;Signal;HPM_P1;HPM_P2
2023/02/21 02:15:27;;;;;;;6.13;2.72;;;7.80;99.90;;;;;;4973064;28;20042;-71
2023/02/21 02:18:15;;;;;;;7.82;3.70;;;7.80;99.90;;;;;;4972029;28;20094;-71
2023/02/21 02:20:59;;;;;;;6.78;3.20;;;7.70;99.90;;;;;;4955749;28;20034;-71
2023/02/21 02:23:52;;;;;;;7.25;3.50;;;7.80;99.90;;;;;;4955927;28;20093;-71
2023/02/21 02:26:37;;;;;;;6.80;3.17;;;7.80;99.90;;;;;;4955815;28;20026;-71
2023/02/21 02:29:31;;;;;;;8.82;3.17;;;7.80;99.90;;;;;;4956188;28;20458;-71
2023/02/21 02:32:18;;;;;;;8.45;3.20;;;7.80;99.90;;;;;;4955623;28;20461;-71
2023/02/21 02:35:11;;;;;;;7.82;3.17;;;7.80;99.90;;;;;;4972550;28;20055;-71
2023/02/21 02:37:43;;;;;;;6.57;3.20;;;7.80;99.90;;;;;;4972565;28;20173;-71
2023/02/21 02:40:31;;;;;;;6.07;3.65;;;7.80;99.90;;;;;;4956129;28;20118;-71
2023/02/21 02:42:57;;;;;;;7.38;3.33;;;7.70;99.90;;;;;;4972740;28;20039;-71
2023/02/21 02:45:41;;;;;;;7.10;3.22;;;7.70;99.90;;;;;;4956015;28;20035;-71
2023/02/21 02:48:20;;;;;;;5.07;2.78;;;7.70;99.90;;;;;;4971998;28;20479;-71
2023/02/21 02:50:48;;;;;;;6.10;2.85;;;7.70;99.90;;;;;;4971480;28;20027;-71
2023/02/21 02:53:21;;;;;;;8.07;3.40;;;7.70;99.90;;;;;;4973287;28;20030;-71
2023/02/21 02:55:55;;;;;;;6.00;3.20;;;7.70;99.90;;;;;;4972797;28;20110;-71
2023/02/21 02:58:22;;;;;;;5.22;2.92;;;7.70;99.90;;;;;;4972083;28;20023;-71
2023/02/21 03:01:11;;;;;;;5.10;2.78;;;7.70;99.90;;;;;;4955283;28;20101;-71
2023/02/21 03:03:56;;;;;;;8.68;2.95;;;7.70;99.90;;;;;;4972465;28;20042;-71
2023/02/21 03:06:28;;;;;;;8.30;3.08;;;7.70;99.90;;;;;;4973153;28;20472;-71
2023/02/21 03:09:30;;;;;;;10.05;2.55;;;7.60;99.90;;;;;;4957181;28;20056;-71
2023/02/21 03:12:14;;;;;;;8.82;2.80;;;7.60;99.90;;;;;;4975721;28;20067;-71
2023/02/21 03:15:03;;;;;;;5.93;2.70;;;7.50;99.90;;;;;;4976070;28;20464;-71
2023/02/21 03:17:32;;;;;;;5.90;2.63;;;7.60;99.90;;;;;;4976372;28;20027;-71
2023/02/21 03:20:00;;;;;;;5.47;2.60;;;7.50;99.90;;;;;;4974488;28;20023;-71
2023/02/21 03:22:29;;;;;;;5.47;2.70;;;7.50;99.90;;;;;;4976488;28;20046;-71
2023/02/21 03:24:57;;;;;;;8.33;3.27;;;7.60;99.90;;;;;;4974441;28;20472;-70
2023/02/21 03:27:24;;;;;;;6.88;2.78;;;7.50;99.90;;;;;;4974949;28;20030;-71
2023/02/21 03:29:51;;;;;;;6.30;2.95;;;7.50;99.90;;;;;;4958330;28;20034;-70
2023/02/21 03:32:41;;;;;;;8.02;2.35;;;7.40;99.90;;;;;;4974858;28;20031;-71
2023/02/21 03:35:07;;;;;;;7.05;3.17;;;7.50;99.90;;;;;;4976109;28;20106;-71
2023/02/21 03:37:39;;;;;;;7.82;3.20;;;7.40;99.90;;;;;;4958839;28;20437;-71
2023/02/21 03:40:09;;;;;;;;;;;7.50;99.90;;;;;;4975158;28;20023;-71
2023/02/21 03:42:34;;;;;;;7.13;2.67;;;7.40;99.90;;;;;;4975938;28;20006;-71
2023/02/21 03:45:00;;;;;;;5.45;2.58;;;7.40;99.90;;;;;;4975720;28;20031;-70
2023/02/21 03:47:26;;;;;;;5.10;2.30;;;7.40;99.90;;;;;;4974562;28;20058;-71
2023/02/21 03:49:51;;;;;;;4.47;2.60;;;7.50;99.90;;;;;;4957960;28;20022;-71
2023/02/21 03:52:17;;;;;;;5.53;2.50;;;7.50;99.90;;;;;;4975854;28;20031;-71
2023/02/21 03:54:43;;;;;;;8.17;2.87;;;7.50;99.90;;;;;;4975074;28;20130;-71
2023/02/21 03:57:09;;;;;;;6.57;3.03;;;7.40;99.90;;;;;;4974477;28;20035;-71
2023/02/21 03:59:34;;;;;;;7.20;2.67;;;7.50;99.90;;;;;;4974439;28;20031;-71
2023/02/21 04:02:00;;;;;;;5.93;3.03;;;7.50;99.90;;;;;;4957654;28;20089;-71
2023/02/21 04:04:25;;;;;;;5.65;2.88;;;7.40;99.90;;;;;;4975921;28;20499;-71
2023/02/21 04:06:51;;;;;;;3.70;2.55;;;7.50;99.90;;;;;;4974932;28;20027;-71
2023/02/21 04:09:17;;;;;;;5.00;2.45;;;7.40;99.90;;;;;;4974178;28;20118;-71
2023/02/21 04:11:43;;;;;;;5.53;2.70;;;7.30;99.90;;;;;;4975135;28;20038;-71
2023/02/21 04:14:09;;;;;;;7.32;3.17;;;7.30;99.90;;;;;;4974625;28;20526;-71
2023/02/21 04:16:35;;;;;;;8.10;3.20;;;7.30;99.90;;;;;;4974073;28;20030;-71
2023/02/21 04:19:01;;;;;;;5.78;2.75;;;7.30;99.90;;;;;;4973222;28;20137;-71
2023/02/21 04:21:26;;;;;;;7.38;2.92;;;7.30;99.90;;;;;;4974057;28;20053;-71
2023/02/21 04:23:52;;;;;;;6.60;2.90;;;7.30;99.90;;;;;;4973118;28;20489;-71
2023/02/21 04:26:17;;;;;;;7.10;2.85;;;7.20;99.90;;;;;;4975229;28;20031;-71
2023/02/21 04:28:43;;;;;;;4.65;2.70;;;7.20;99.90;;;;;;4957234;28;20117;-71
2023/02/21 04:31:09;;;;;;;6.85;3.05;;;7.20;99.90;;;;;;4973948;28;20379;-71
2023/02/21 04:33:34;;;;;;;8.15;3.65;;;7.20;99.90;;;;;;4973816;28;20452;-70
2023/02/21 04:36:00;;;;;;;6.57;2.70;;;7.20;99.90;;;;;;4957067;28;20235;-71
2023/02/21 04:38:25;;;;;;;8.65;3.50;;;7.30;99.90;;;;;;4974911;28;20117;-71
2023/02/21 04:40:51;;;;;;;5.40;2.90;;;7.30;99.90;;;;;;4974221;28;20084;-71
2023/02/21 04:43:17;;;;;;;8.57;3.08;;;7.30;99.90;;;;;;4973648;28;20031;-70
2023/02/21 04:45:42;;;;;;;5.95;2.75;;;7.30;99.90;;;;;;4956880;28;20066;-71
2023/02/21 04:48:08;;;;;;;7.65;2.95;;;7.30;99.90;;;;;;4979983;28;20037;-71
2023/02/21 04:50:33;;;;;;;4.95;2.95;;;7.20;99.90;;;;;;4994120;28;20089;-71
2023/02/21 04:52:59;;;;;;;5.88;3.22;;;7.20;99.90;;;;;;4975995;28;20053;-71
2023/02/21 04:55:25;;;;;;;5.82;3.28;;;7.10;99.90;;;;;;4988090;28;20058;-70
2023/02/21 04:57:50;;;;;;;5.50;3.10;;;7.10;99.90;;;;;;4993144;28;20114;-71
2023/02/21 05:00:16;;;;;;;7.37;3.33;;;7.10;99.90;;;;;;4994050;28;20033;-71
2023/02/21 05:02:42;;;;;;;5.40;3.23;;;7.10;99.90;;;;;;4992363;28;20070;-73
2023/02/21 05:05:08;;;;;;;8.07;3.40;;;7.10;99.90;;;;;;4992614;28;20121;-71
2023/02/21 05:07:34;;;;;;;9.50;3.35;;;7.00;99.90;;;;;;4992682;28;20113;-70
2023/02/21 05:10:00;;;;;;;6.15;3.40;;;7.10;99.90;;;;;;4984326;28;20031;-70
2023/02/21 05:12:25;;;;;;;6.07;3.38;;;7.10;99.90;;;;;;4974405;28;20031;-70
2023/02/21 05:14:51;;;;;;;8.68;3.45;;;7.00;99.90;;;;;;4972447;28;20531;-71
2023/02/21 05:17:17;;;;;;;7.25;3.50;;;6.90;99.90;;;;;;4973034;28;20033;-71
2023/02/21 05:19:45;;;;;;;8.57;3.75;;;6.90;99.90;;;;;;4972750;28;20035;-73
2023/02/21 05:22:10;;;;;;;5.07;3.13;;;6.90;99.90;;;;;;4972913;28;20416;-71
2023/02/21 05:24:41;;;;;;;7.20;4.13;;;6.90;99.90;;;;;;4974353;28;20110;-71
2023/02/21 05:27:10;;;;;;;4.97;3.47;;;6.80;99.90;;;;;;4973583;28;20102;-71
2023/02/21 05:29:36;;;;;;;7.55;3.63;;;6.80;99.90;;;;;;4972760;28;20049;-71
2023/02/21 05:32:02;;;;;;;9.85;4.00;;;6.70;99.90;;;;;;4972581;28;20488;-71
2023/02/21 05:34:27;;;;;;;6.70;4.05;;;6.70;99.90;;;;;;4973770;28;20027;-71
2023/02/21 05:36:53;;;;;;;6.50;3.80;;;6.60;99.90;;;;;;4972199;28;20061;-71
2023/02/21 05:39:18;;;;;;;7.70;3.97;;;6.60;99.90;;;;;;4972717;28;20029;-71
2023/02/21 05:41:48;;;;;;;9.63;3.80;;;6.50;99.90;;;;;;4973927;28;20157;-73
2023/02/21 05:44:14;;;;;;;9.87;4.13;;;6.50;99.90;;;;;;4972562;28;20038;-71
2023/02/21 05:46:40;;;;;;;9.33;4.10;;;6.50;99.90;;;;;;4972565;28;20487;-71
2023/02/21 05:49:06;;;;;;;7.37;3.90;;;6.50;99.90;;;;;;4971999;28;20039;-71
2023/02/21 05:51:37;;;;;;;10.27;4.13;;;6.50;99.90;;;;;;4972743;28;20027;-71
2023/02/21 05:54:05;;;;;;;11.80;4.20;;;6.40;99.90;;;;;;4971588;28;20109;-71
2023/02/21 05:56:35;;;;;;;8.80;3.90;;;6.40;99.90;;;;;;4973813;28;20054;-71
2023/02/21 05:59:01;;;;;;;10.17;4.10;;;6.40;99.90;;;;;;4971886;28;20031;-71
2023/02/21 06:01:27;;;;;;;8.73;4.33;;;6.40;99.90;;;;;;4972588;28;20030;-71
2023/02/21 06:03:52;;;;;;;8.07;4.20;;;6.40;99.90;;;;;;4986962;28;20072;-71
2023/02/21 06:06:18;;;;;;;12.87;5.00;;;6.30;99.90;;;;;;4982613;28;20034;-71
2023/02/21 06:08:48;;;;;;;8.17;4.77;;;6.30;99.90;;;;;;4991850;28;20122;-71
2023/02/21 06:11:20;;;;;;;8.40;4.80;;;6.30;99.90;;;;;;4992015;28;20419;-71
2023/02/21 06:13:48;;;;;;;12.70;4.43;;;6.30;99.90;;;;;;4993079;28;20040;-73
2023/02/21 06:16:14;;;;;;;7.20;4.13;;;6.20;99.90;;;;;;4991837;28;20132;-71
2023/02/21 06:18:39;;;;;;;12.03;4.37;;;6.30;99.90;;;;;;4992998;28;20379;-70
2023/02/21 06:21:05;;;;;;;8.63;4.27;;;6.20;99.90;;;;;;4991076;28;20085;-70
2023/02/21 06:23:30;;;;;;;9.10;3.83;;;6.30;99.90;;;;;;4991356;28;20141;-70
2023/02/21 06:25:56;;;;;;;9.10;4.67;;;6.30;99.90;;;;;;4992030;28;20037;-71
2023/02/21 06:28:27;;;;;;;11.83;5.03;;;6.30;99.90;;;;;;4991578;28;20463;-71
2023/02/21 06:30:52;;;;;;;11.90;4.17;;;6.20;99.90;;;;;;4992311;28;20065;-71
2023/02/21 06:33:18;;;;;;;7.83;4.47;;;6.20;99.90;;;;;;5007670;28;20026;-70
2023/02/21 06:35:43;;;;;;;13.07;4.80;;;6.30;99.90;;;;;;4991356;28;20030;-70
2023/02/21 06:38:09;;;;;;;10.27;5.20;;;6.30;99.90;;;;;;4991752;28;20026;-71
2023/02/21 06:40:34;;;;;;;6.53;4.00;;;6.20;99.90;;;;;;4992647;28;20438;-71
2023/02/21 06:43:00;;;;;;;8.43;4.17;;;6.20;99.90;;;;;;4993096;28;20042;-71
2023/02/21 06:45:26;;;;;;;12.10;4.50;;;6.20;99.90;;;;;;4996316;28;20034;-71
2023/02/21 06:47:51;;;;;;;10.87;4.60;;;6.30;99.90;;;;;;4994377;28;20040;-72
2023/02/21 06:50:17;;;;;;;10.87;4.33;;;6.30;99.90;;;;;;4996199;28;20089;-71
2023/02/21 06:52:42;;;;;;;6.93;4.43;;;6.30;99.90;;;;;;4994827;28;20034;-71
2023/02/21 06:55:08;;;;;;;12.03;5.70;;;6.20;99.90;;;;;;4994067;28;20424;-70
2023/02/21 06:57:34;;;;;;;13.70;5.27;;;6.20;99.90;;;;;;4994533;28;20030;-71
2023/02/21 06:59:59;;;;;;;13.30;6.00;;;6.30;99.90;;;;;;4994213;28;20030;-71
2023/02/21 07:02:25;;;;;;;12.83;5.40;;;6.30;99.90;;;;;;4994860;28;20034;-71
2023/02/21 07:04:51;;;;;;;12.07;5.13;;;6.30;99.90;;;;;;4995334;28;20030;-72
2023/02/21 07:07:16;;;;;;;13.87;5.67;;;6.30;99.90;;;;;;4995056;28;20521;-71
2023/02/21 07:09:42;;;;;;;11.70;4.80;;;6.40;99.90;;;;;;4994543;28;20032;-71
2023/02/21 07:12:07;;;;;;;13.63;5.17;;;6.40;99.90;;;;;;4993962;28;20026;-71
2023/02/21 07:14:33;;;;;;;11.43;4.93;;;6.40;99.90;;;;;;4995837;28;20030;-71
2023/02/21 07:16:59;;;;;;;12.63;5.23;;;6.40;99.90;;;;;;4995135;28;20054;-71
2023/02/21 07:19:24;;;;;;;10.33;4.87;;;6.40;99.90;;;;;;4994088;28;20084;-71
2023/02/21 07:21:50;;;;;;;9.40;4.60;;;6.40;99.90;;;;;;5010248;28;20037;-73
2023/02/21 07:24:16;;;;;;;12.60;5.07;;;6.50;99.90;;;;;;4994184;28;20053;-71
2023/02/21 07:26:41;;;;;;;9.30;4.80;;;6.50;99.90;;;;;;4994287;28;20030;-71
2023/02/21 07:29:07;;;;;;;12.27;5.23;;;6.50;99.90;;;;;;4995228;28;20030;-70
2023/02/21 07:31:32;;;;;;;11.30;4.77;;;6.50;99.90;;;;;;4994187;28;20414;-70
2023/02/21 07:33:58;;;;;;;14.27;5.47;;;6.50;99.90;;;;;;4994840;28;20030;-70
2023/02/21 07:36:24;;;;;;;9.13;4.90;;;6.50;99.90;;;;;;4995658;28;20030;-70
2023/02/21 07:38:49;;;;;;;9.53;5.20;;;6.60;99.90;;;;;;4995623;28;20039;-70
2023/02/21 07:41:15;;;;;;;11.80;5.30;;;6.60;99.90;;;;;;4994742;28;20081;-70
2023/02/21 07:43:41;;;;;;;9.60;4.90;;;6.70;99.90;;;;;;4995295;28;20031;-70
2023/02/21 07:46:11;;;;;;;10.73;5.23;;;6.60;99.90;;;;;;4994758;28;20033;-70
2023/02/21 07:48:37;;;;;;;12.63;5.13;;;6.70;99.90;;;;;;4995307;28;20523;-70
2023/02/21 07:51:05;;;;;;;17.97;6.87;;;6.70;99.90;;;;;;4994961;28;20057;-70
2023/02/21 07:53:30;;;;;;;15.23;6.47;;;6.80;99.90;;;;;;4993304;28;20541;-70
2023/02/21 07:55:56;;;;;;;14.60;5.97;;;6.80;99.90;;;;;;4993287;28;20141;-71
2023/02/21 07:58:21;;;;;;;15.60;6.00;;;6.80;99.90;;;;;;4995164;28;20383;-69
2023/02/21 08:00:47;;;;;;;14.70;5.87;;;6.80;99.90;;;;;;4995068;28;20026;-71
2023/02/21 08:03:13;;;;;;;13.13;6.53;;;6.90;99.90;;;;;;4993124;28;20088;-71
2023/02/21 08:05:39;;;;;;;13.03;6.57;;;6.90;99.90;;;;;;5010058;28;20149;-71
2023/02/21 08:08:09;;;;;;;14.67;6.53;;;6.90;99.90;;;;;;4993161;28;20026;-71
2023/02/21 08:10:35;;;;;;;11.60;6.00;;;6.90;99.90;;;;;;4993707;28;20030;-71
2023/02/21 08:13:01;;;;;;;10.07;5.60;;;7.00;99.90;;;;;;4992913;28;20052;-71
2023/02/21 08:15:28;;;;;;;11.20;5.83;;;7.00;99.90;;;;;;4975882;28;20471;-71
2023/02/21 08:17:53;;;;;;;10.70;5.55;;;7.10;99.90;;;;;;4987018;28;20030;-72
2023/02/21 08:20:19;;;;;;;12.90;5.03;;;7.10;99.90;;;;;;4985761;28;20102;-70
2023/02/21 08:22:45;;;;;;;17.80;5.60;;;7.20;99.90;;;;;;4993645;28;20048;-70
2023/02/21 08:25:12;;;;;;;8.37;5.03;;;7.20;99.90;;;;;;4989499;28;20034;-71
2023/02/21 08:27:39;;;;;;;8.33;5.07;;;7.30;99.90;;;;;;4985694;28;20455;-70
2023/02/21 08:30:06;;;;;;;9.83;5.07;;;7.30;99.90;;;;;;4984696;28;20033;-70
2023/02/21 08:32:33;;;;;;;10.03;4.67;;;7.30;99.90;;;;;;4983594;28;20080;-70
2023/02/21 08:34:59;;;;;;;9.37;4.50;;;7.40;99.90;;;;;;4985049;28;20027;-70
2023/02/21 08:37:31;;;;;;;12.80;4.40;;;7.50;99.90;;;;;;5002508;28;20079;-71
2023/02/21 08:39:57;;;;;;;7.95;4.00;;;7.50;99.90;;;;;;4990507;28;20042;-71
2023/02/21 08:42:23;;;;;;;9.65;4.43;;;7.50;99.90;;;;;;4976837;28;20042;-70
2023/02/21 08:44:48;;;;;;;7.65;4.28;;;7.60;99.90;;;;;;4981427;28;20173;-70
2023/02/21 08:47:15;;;;;;;13.50;4.60;;;7.60;99.90;;;;;;4991420;28;20085;-70
2023/02/21 08:49:46;;;;;;;9.63;4.23;;;7.70;99.90;;;;;;4992468;28;20050;-70
2023/02/21 08:52:12;;;;;;;8.40;4.18;;;7.70;99.90;;;;;;4991894;28;20538;-71
2023/02/21 08:54:38;;;;;;;15.27;4.47;;;7.70;99.90;;;;;;4991502;28;20042;-71
2023/02/21 08:57:04;;;;;;;9.50;3.83;;;7.80;99.90;;;;;;4983744;28;20088;-71
2023/02/21 08:59:32;;;;;;;13.80;3.78;;;7.80;99.90;;;;;;4992751;28;20030;-71
2023/02/21 09:01:58;;;;;;;10.00;4.00;;;7.80;99.90;;;;;;4984083;28;20034;-73
2023/02/21 09:04:25;;;;;;;11.60;4.20;;;7.90;99.90;;;;;;4990350;28;20471;-71
2023/02/21 09:06:51;;;;;;;7.80;3.70;;;8.00;99.90;;;;;;4991072;28;20061;-71
2023/02/21 09:09:17;;;;;;;6.50;3.40;;;8.00;99.90;;;;;;4989654;28;20056;-71
2023/02/21 09:11:45;;;;;;;10.52;3.80;;;8.00;99.90;;;;;;4985072;28;20149;-71
2023/02/21 09:14:11;;;;;;;10.35;4.07;;;8.10;99.90;;;;;;4979614;28;20034;-74
2023/02/21 09:16:37;;;;;;;7.88;4.70;;;8.10;99.90;;;;;;4989330;28;20022;-73
2023/02/21 09:19:05;;;;;;;8.93;4.50;;;8.20;99.90;;;;;;4981152;28;20503;-73
2023/02/21 09:21:31;;;;;;;8.73;3.70;;;8.30;99.90;;;;;;4986334;28;20077;-74
2023/02/21 09:23:58;;;;;;;10.70;4.32;;;8.40;99.90;;;;;;4984945;28;20050;-75
2023/02/21 09:26:24;;;;;;;10.32;4.28;;;8.40;99.90;;;;;;4980348;28;20068;-74
2023/02/21 09:28:51;;;;;;;11.23;5.25;;;8.50;99.90;;;;;;4990012;28;20026;-72
2023/02/21 09:31:17;;;;;;;8.13;4.47;;;8.60;99.90;;;;;;4989631;28;20042;-73
2023/02/21 09:33:43;;;;;;;9.27;4.40;;;8.60;99.90;;;;;;4989132;28;20117;-74
2023/02/21 09:36:10;;;;;;;10.18;3.90;;;8.70;99.90;;;;;;4990653;28;20064;-73
2023/02/21 09:38:35;;;;;;;10.80;4.53;;;8.70;99.90;;;;;;4987740;28;20027;-73
2023/02/21 09:41:05;;;;;;;7.68;4.05;;;8.80;99.90;;;;;;4989192;28;20084;-74
2023/02/21 09:43:34;;;;;;;8.23;4.40;;;8.90;99.90;;;;;;4989443;28;20479;-73
2023/02/21 09:46:14;;;;;;;9.93;4.47;;;8.90;99.90;;;;;;4979613;28;20080;-73
2023/02/21 09:48:42;;;;;;;6.38;3.72;;;9.00;99.90;;;;;;4989669;28;20023;-73
2023/02/21 09:51:10;;;;;;;7.30;4.40;;;9.10;99.90;;;;;;4983102;28;20391;-71
2023/02/21 09:53:40;;;;;;;7.93;3.92;;;9.10;99.90;;;;;;4989838;28;20034;-72
2023/02/21 09:56:10;;;;;;;12.68;4.50;;;9.20;99.90;;;;;;4973391;28;20502;-72
2023/02/21 09:58:39;;;;;;;7.93;3.80;;;9.30;99.90;;;;;;4965105;28;20697;-72
2023/02/21 10:01:28;;;;;;;7.10;3.67;;;9.40;99.90;;;;;;4967402;28;20030;-72
2023/02/21 10:04:29;;;;;;;8.07;3.97;;;9.50;99.90;;;;;;4924874;28;20073;-72
2023/02/21 10:06:54;;;;;;;8.35;3.75;;;9.60;99.90;;;;;;4971356;28;20022;-72
2023/02/21 10:09:35;;;;;;;8.98;3.50;;;9.60;99.90;;;;;;4990665;28;20032;-73
2023/02/21 10:12:24;;;;;;;6.50;3.63;;;9.70;99.90;;;;;;4989181;28;20463;-74
2023/02/21 10:15:27;;;;;;;6.72;3.42;;;9.80;99.90;;;;;;4986437;28;20506;-72
2023/02/21 10:17:56;;;;;;;9.35;3.30;;;9.80;99.90;;;;;;4973500;28;20037;-71
2023/02/21 10:20:26;;;;;;;9.20;3.25;;;9.90;99.90;;;;;;4975511;28;20084;-71
2023/02/21 10:22:54;;;;;;;10.88;2.90;;;10.00;99.90;;;;;;4975140;28;20129;-72
2023/02/21 10:25:24;;;;;;;7.63;3.45;;;10.00;99.90;;;;;;4976485;28;20629;-72
2023/02/21 10:27:52;;;;;;;7.97;3.05;;;10.10;99.90;;;;;;4995514;28;20108;-72
2023/02/21 10:30:31;;;;;;;6.50;2.88;;;10.20;99.90;;;;;;4994082;28;20037;-72
2023/02/21 10:32:57;;;;;;;5.40;3.08;;;10.30;99.90;;;;;;4977798;28;20030;-71
2023/02/21 10:35:23;;;;;;;6.65;3.25;;;10.40;99.90;;;;;;4976940;28;20879;-72
2023/02/21 10:37:58;;;;;;;6.90;3.42;;;10.50;99.90;;;;;;4977964;28;20444;-72
2023/02/21 10:40:41;;;;;;;12.73;3.92;;;10.50;99.90;;;;;;4973012;28;20031;-72
2023/02/21 10:43:17;;;;;;;6.43;3.42;;;10.60;99.90;;;;;;4976266;28;20054;-72
2023/02/21 10:45:56;;;;;;;10.55;4.45;;;10.60;99.90;;;;;;4976669;28;20018;-72
2023/02/21 10:48:25;;;;;;;9.85;3.80;;;10.70;99.90;;;;;;4993569;28;20056;-73
2023/02/21 10:51:03;;;;;;;6.43;3.80;;;10.80;99.90;;;;;;4977325;28;20064;-72
2023/02/21 10:53:35;;;;;;;8.02;3.88;;;10.90;99.90;;;;;;4977057;28;20522;-72
2023/02/21 10:56:19;;;;;;;11.65;4.35;;;10.90;99.90;;;;;;4963557;28;20187;-73
2023/02/21 10:58:45;;;;;;;10.30;4.45;;;11.00;99.90;;;;;;4982452;28;20032;-73
2023/02/21 11:01:25;;;;;;;10.77;3.83;;;11.10;99.90;;;;;;4993093;28;20077;-73
2023/02/21 11:03:58;;;;;;;9.02;4.00;;;11.10;99.90;;;;;;4962449;28;20061;-73
2023/02/21 11:06:30;;;;;;;7.05;3.50;;;11.20;99.90;;;;;;4964244;28;20114;-73
2023/02/21 11:08:56;;;;;;;7.45;3.72;;;11.20;99.90;;;;;;4995202;28;20086;-73
2023/02/21 11:11:34;;;;;;;7.63;3.92;;;11.30;99.90;;;;;;4986806;28;20034;-73
2023/02/21 11:14:24;;;;;;;9.15;4.72;;;11.30;99.90;;;;;;4981339;28;20081;-71
2023/02/21 11:17:16;;;;;;;9.75;4.47;;;11.40;99.90;;;;;;4975316;28;20046;-72
2023/02/21 11:19:47;;;;;;;8.40;3.92;;;11.40;99.90;;;;;;4976749;28;20472;-71
2023/02/21 11:22:14;;;;;;;9.85;3.83;;;11.40;99.90;;;;;;4992290;28;20108;-72
2023/02/21 11:24:49;;;;;;;7.15;3.58;;;11.50;99.90;;;;;;4975234;28;20102;-72
2023/02/21 11:27:15;;;;;;;8.38;3.67;;;11.50;99.90;;;;;;4984340;28;20237;-72
2023/02/21 11:29:44;;;;;;;10.60;3.88;;;11.60;99.90;;;;;;4975959;28;20490;-71
2023/02/21 11:32:12;;;;;;;8.05;3.55;;;11.70;99.90;;;;;;4992260;28;20026;-71
2023/02/21 11:34:43;;;;;;;9.30;3.95;;;11.80;99.90;;;;;;4994456;28;20030;-71
2023/02/21 11:37:09;;;;;;;8.85;3.60;;;11.80;99.90;;;;;;4968189;28;20034;-72
2023/02/21 11:39:35;;;;;;;9.30;3.70;;;11.90;99.90;;;;;;4976484;28;20031;-71
2023/02/21 11:42:03;;;;;;;14.68;4.25;;;12.00;99.90;;;;;;4993464;28;20042;-73
2023/02/21 11:44:40;;;;;;;7.80;3.38;;;12.00;99.90;;;;;;4993403;28;20034;-73
2023/02/21 11:47:22;;;;;;;9.68;3.47;;;12.10;99.90;;;;;;4963773;28;20114;-72
2023/02/21 11:50:16;;;;;;;6.70;3.50;;;12.10;99.90;;;;;;4994313;28;20054;-72
2023/02/21 11:52:55;;;;;;;8.18;3.08;;;12.10;99.90;;;;;;4973888;28;20026;-72
2023/02/21 11:55:22;;;;;;;10.70;3.17;;;12.20;99.90;;;;;;4975069;28;20633;-72
2023/02/21 11:58:00;;;;;;;5.85;2.90;;;12.20;99.90;;;;;;4970020;28;20360;-72
2023/02/21 12:00:35;;;;;;;10.95;3.30;;;12.30;99.90;;;;;;4974861;28;20030;-73
2023/02/21 12:03:18;;;;;;;6.53;2.95;;;12.40;99.90;;;;;;4971753;28;20030;-74
2023/02/21 12:05:47;;;;;;;6.07;2.78;;;12.40;99.90;;;;;;4984838;28;20491;-73
2023/02/21 12:08:35;;;;;;;5.65;3.15;;;12.50;99.90;;;;;;4972480;28;20034;-73
2023/02/21 12:11:17;;;;;;;5.88;3.05;;;12.50;99.90;;;;;;4972393;28;20081;-72
2023/02/21 12:14:20;;;;;;;7.28;3.08;;;12.60;99.90;;;;;;4975077;28;20034;-72
2023/02/21 12:16:54;;;;;;;6.85;3.20;;;12.70;99.90;;;;;;4983988;28;20057;-73
2023/02/21 12:19:28;;;;;;;8.48;3.22;;;13.00;99.90;;;;;;4971289;28;20037;-72
2023/02/21 12:22:12;;;;;;;8.48;3.22;;;13.10;99.90;;;;;;4975761;28;20030;-71
2023/02/21 12:24:54;;;;;;;9.43;3.15;;;13.20;99.40;;;;;;4970780;28;20046;-72
2023/02/21 12:27:54;;;;;;;6.32;3.00;;;13.50;99.00;;;;;;4964796;28;20068;-71
2023/02/21 12:30:41;;;;;;;6.40;2.60;;;13.70;97.70;;;;;;4992894;28;20026;-71
2023/02/21 12:33:10;;;;;;;5.90;2.70;;;14.00;96.80;;;;;;4974881;28;20041;-71
2023/02/21 12:36:19;;;;;;;4.72;2.53;;;14.20;95.70;;;;;;4992724;28;20018;-71
2023/02/21 12:39:11;;;;;;;5.18;2.13;;;14.60;94.20;;;;;;4875145;29;20031;-71
2023/02/21 12:42:17;;;;;;;4.47;2.15;;;14.80;93.50;;;;;;4875803;29;20040;-71
2023/02/21 12:45:20;;;;;;;5.95;2.28;;;15.10;92.50;;;;;;4889266;29;20207;-71
2023/02/21 12:48:13;;;;;;;6.68;2.28;;;15.40;90.20;;;;;;4878832;29;20045;-71
2023/02/21 12:50:42;;;;;;;7.82;2.22;;;15.60;87.20;;;;;;4895035;29;20486;-71
2023/02/21 12:53:07;;;;;;;4.13;1.52;;;15.90;84.30;;;;;;4893859;29;20047;-72
2023/02/21 12:56:10;;;;;;;5.45;2.13;;;16.10;83.40;;;;;;4909863;29;20056;-72
2023/02/21 12:58:46;;;;;;;3.83;1.70;;;16.30;79.40;;;;;;4839237;29;20042;-71
2023/02/21 13:01:20;;;;;;;4.18;2.00;;;16.80;79.20;;;;;;4902669;29;20502;-72
2023/02/21 13:04:10;;;;;;;9.63;1.90;;;17.50;74.70;;;;;;4894043;29;20116;-72
2023/02/21 13:06:51;;;;;;;4.75;2.35;;;18.30;72.00;;;;;;4896407;29;20133;-72
2023/02/21 13:09:37;;;;;;;4.15;2.17;;;19.50;67.60;;;;;;4936127;28;20092;-72
2023/02/21 13:12:11;;;;;;;6.97;1.90;;;20.10;63.20;;;;;;4991326;28;20177;-72
2023/02/21 13:14:48;;;;;;;6.60;1.92;;;20.70;62.30;;;;;;4987719;28;20049;-71
2023/02/21 13:17:15;;;;;;;5.00;1.60;;;21.20;59.20;;;;;;4986212;28;20364;-71
2023/02/21 13:19:46;;;;;;;3.92;1.70;;;21.70;58.40;;;;;;4984056;28;20026;-71
2023/02/21 13:25:37;;;;;;;4.10;1.65;;;22.60;52.60;;;;;;4988499;28;20045;-72
2023/02/21 13:28:11;;;;;;;3.40;1.63;;;22.90;52.30;;;;;;4989414;28;20471;-72
2023/02/21 13:31:01;;;;;;;3.67;1.60;;;23.20;50.60;;;;;;4992249;28;20031;-73
2023/02/21 13:33:37;;;;;;;2.75;1.40;;;23.90;48.20;;;;;;4977901;28;20357;-73
2023/02/21 13:36:15;;;;;;;5.85;1.67;;;24.30;47.30;;;;;;4988691;28;20023;-73
2023/02/21 13:38:42;;;;;;;5.82;1.65;;;24.70;46.90;;;;;;4986806;28;20104;-73
2023/02/21 13:41:15;;;;;;;2.25;1.45;;;25.30;47.20;;;;;;4989426;28;20026;-70
2023/02/21 13:43:48;;;;;;;5.10;1.90;;;25.90;45.90;;;;;;4983701;28;20030;-70
2023/02/21 13:46:29;;;;;;;3.40;1.58;;;25.80;44.60;;;;;;4986006;28;20049;-70
2023/02/21 13:49:32;;;;;;;5.45;2.13;;;25.80;43.60;;;;;;4977012;28;20090;-70
2023/02/21 13:52:22;;;;;;;5.07;1.60;;;25.50;44.50;;;;;;4982926;28;20130;-70
2023/02/21 13:55:19;;;;;;;5.35;1.63;;;25.10;44.10;;;;;;4989320;28;20073;-71
2023/02/21 13:57:56;;;;;;;3.40;1.70;;;24.70;44.10;;;;;;4987738;28;20478;-71
2023/02/21 14:00:24;;;;;;;4.07;1.30;;;24.40;45.30;;;;;;4991822;28;20033;-71
2023/02/21 14:03:11;;;;;;;5.88;1.58;;;24.00;46.30;;;;;;4981184;28;20129;-71
2023/02/21 14:05:49;;;;;;;3.28;1.65;;;23.50;45.10;;;;;;4990021;28;20489;-70
2023/02/21 14:08:48;;;;;;;4.30;1.65;;;23.10;46.30;;;;;;4986489;28;20023;-70
2023/02/21 14:11:22;;;;;;;4.28;1.58;;;23.00;46.00;;;;;;4946878;28;20027;-73
2023/02/21 14:13:57;;;;;;;4.65;1.55;;;23.00;47.30;;;;;;4981914;28;20157;-74
2023/02/21 14:16:33;;;;;;;4.32;1.70;;;23.10;47.20;;;;;;4989357;28;20045;-72
2023/02/21 14:19:05;;;;;;;5.20;1.67;;;22.70;46.70;;;;;;4991555;28;20027;-73
2023/02/21 14:21:54;;;;;;;4.65;1.70;;;22.70;47.40;;;;;;4987720;28;20134;-73
2023/02/21 14:24:30;;;;;;;3.60;1.30;;;22.40;47.40;;;;;;4977476;28;20054;-73
2023/02/21 14:27:04;;;;;;;3.45;1.33;;;22.00;47.90;;;;;;4985856;28;20088;-72
2023/02/21 14:29:32;;;;;;;2.85;1.33;;;21.70;48.40;;;;;;4989722;28;20842;-72
2023/02/21 14:32:03;;;;;;;3.42;0.90;;;21.50;49.00;;;;;;4986900;28;20093;-73
2023/02/21 14:34:47;;;;;;;1.58;0.98;;;21.00;47.90;;;;;;4988516;28;20026;-73
2023/02/21 14:37:34;;;;;;;1.45;1.17;;;20.80;49.70;;;;;;4989583;28;20026;-72
2023/02/21 14:40:12;;;;;;;2.13;0.80;;;20.40;48.90;;;;;;4991632;28;20177;-73
2023/02/21 14:42:40;;;;;;;2.80;0.82;;;20.20;49.80;;;;;;4983417;28;20034;-72
2023/02/21 14:45:09;;;;;;;3.20;0.93;;;20.10;50.40;;;;;;4984226;28;20174;-72
2023/02/21 14:47:55;;;;;;;3.38;0.77;;;19.80;51.30;;;;;;4988936;28;20475;-73
2023/02/21 14:50:42;;;;;;;3.17;1.13;;;19.50;51.90;;;;;;4990438;28;20026;-72
2023/02/21 14:53:26;;;;;;;3.55;1.00;;;19.40;52.00;;;;;;4983769;28;20503;-72
2023/02/21 14:55:54;;;;;;;1.83;0.95;;;19.10;52.70;;;;;;4989809;28;20069;-73
2023/02/21 14:58:42;;;;;;;1.55;0.98;;;18.90;53.20;;;;;;4989597;28;20430;-73
2023/02/21 15:01:36;;;;;;;2.47;1.15;;;18.70;53.30;;;;;;4990161;28;20053;-72
2023/02/21 15:04:24;;;;;;;3.50;1.02;;;18.60;53.60;;;;;;4988718;28;20034;-72
2023/02/21 15:07:19;;;;;;;2.08;1.00;;;18.40;54.30;;;;;;4991071;28;20085;-72
2023/02/21 15:10:05;;;;;;;3.88;1.10;;;18.20;54.60;;;;;;4987346;28;20022;-72
2023/02/21 15:12:35;;;;;;;3.55;1.00;;;18.00;55.30;;;;;;4981897;28;20381;-72
2023/02/21 15:15:01;;;;;;;2.58;0.95;;;17.90;56.10;;;;;;4988726;28;20042;-72
2023/02/21 15:17:27;;;;;;;2.03;0.93;;;17.70;56.10;;;;;;5008905;28;20392;-72
2023/02/21 15:20:16;;;;;;;2.35;1.27;;;17.60;56.70;;;;;;4984573;28;20026;-72
2023/02/21 15:22:43;;;;;;;2.58;1.00;;;17.50;57.30;;;;;;4990065;28;20034;-71
2023/02/21 15:25:08;;;;;;;2.70;0.95;;;17.40;56.70;;;;;;4994035;28;20034;-74
2023/02/21 15:27:47;;;;;;;3.28;1.00;;;17.30;56.70;;;;;;4992119;28;20030;-71
2023/02/21 15:30:22;;;;;;;2.58;1.00;;;17.30;57.30;;;;;;4992488;28;20030;-73
2023/02/21 15:33:03;;;;;;;2.05;0.98;;;17.00;57.50;;;;;;4984096;28;20391;-71
2023/02/21 15:35:33;;;;;;;1.80;0.73;;;16.90;58.20;;;;;;4992353;28;20030;-71